createdAt,value
2016-03-10T00:00:04.700Z,87.74
2016-03-10T00:01:04.704Z,87.18
2016-03-10T00:02:04.691Z,87.37
2016-03-10T00:03:04.694Z,87.46
2016-03-10T00:04:04.664Z,87.08
2016-03-10T00:05:04.667Z,86.99
2016-03-10T00:06:04.661Z,86.9
2016-03-10T00:07:04.664Z,87.93
2016-03-10T00:08:04.650Z,86.71
2016-03-10T00:09:04.653Z,87.74
2016-03-10T00:10:04.640Z,87.74
2016-03-10T00:11:04.627Z,86.9
2016-03-10T00:12:04.614Z,87.65
2016-03-10T00:13:04.616Z,87.93
2016-03-10T00:14:04.603Z,87.84
2016-03-10T00:15:04.591Z,86.9
2016-03-10T00:16:04.594Z,87.18
2016-03-10T00:17:04.580Z,87.46
2016-03-10T00:18:04.584Z,87.27
2016-03-10T00:19:04.571Z,87.08
2016-03-10T00:20:04.558Z,87.65
2016-03-10T00:21:04.560Z,87.74
2016-03-10T00:22:04.547Z,87.51
2016-03-10T00:23:04.549Z,87.55
2016-03-10T00:24:04.538Z,88.17
2016-03-10T00:25:04.540Z,88.27
2016-03-10T00:26:04.527Z,88.36
2016-03-10T00:27:04.513Z,88.5
2016-03-10T00:28:04.516Z,88.27
2016-03-10T00:29:04.551Z,88.03
2016-03-10T00:30:04.506Z,87.89
2016-03-10T00:31:04.494Z,87.79
2016-03-10T00:32:04.329Z,88.03
2016-03-10T00:33:04.478Z,88.36
2016-03-10T00:34:04.464Z,88.46
2016-03-10T00:35:04.451Z,87.98
2016-03-10T00:36:04.454Z,88.46
2016-03-10T00:37:04.457Z,88.27
2016-03-10T00:38:04.466Z,88.36
2016-03-10T00:39:04.421Z,88.27
2016-03-10T00:40:04.424Z,88.17
2016-03-10T00:41:04.411Z,88.17
2016-03-10T00:42:04.415Z,87.98
2016-03-10T00:43:04.401Z,88.17
2016-03-10T00:44:04.389Z,88.36
2016-03-10T00:45:04.407Z,87.98
2016-03-10T00:46:04.379Z,88.27
2016-03-10T00:47:04.365Z,88.36
2016-03-10T00:48:04.368Z,88.27
2016-03-10T00:49:04.355Z,89.22
2016-03-10T00:50:04.358Z,89.03
2016-03-10T00:51:04.345Z,89.22
2016-03-10T00:52:04.332Z,89.59
2016-03-10T00:53:04.320Z,89.87
2016-03-10T00:54:04.322Z,89.59
2016-03-10T00:55:04.324Z,89.59
2016-03-10T00:56:04.311Z,89.87
2016-03-10T00:57:04.299Z,89.69
2016-03-10T00:58:04.301Z,89.87
2016-03-10T00:59:04.289Z,89.59
2016-03-10T01:00:04.275Z,89.78
2016-03-10T01:01:04.263Z,89.69
2016-03-10T01:02:04.265Z,89.59
2016-03-10T01:03:04.252Z,89.69
2016-03-10T01:04:04.254Z,89.87
2016-03-10T01:05:04.242Z,89.87
2016-03-10T01:06:04.244Z,89.5
2016-03-10T01:07:04.232Z,89.59
2016-03-10T01:08:04.218Z,89.97
2016-03-10T01:09:04.206Z,89.78
2016-03-10T01:10:04.209Z,89.59
2016-03-10T01:11:04.196Z,89.59
2016-03-10T01:12:04.214Z,89.78
2016-03-10T01:13:04.185Z,89.78
2016-03-10T01:14:04.188Z,89.59
2016-03-10T01:15:04.175Z,89.87
2016-03-10T01:16:04.162Z,89.87
2016-03-10T01:17:04.164Z,89.87
2016-03-10T01:18:04.151Z,89.87
2016-03-10T01:19:04.139Z,89.87
2016-03-10T01:20:04.157Z,89.59
2016-03-10T01:21:04.144Z,89.59
2016-03-10T01:22:04.116Z,89.59
2016-03-10T01:23:04.133Z,89.97
2016-03-10T01:24:04.122Z,90.63
2016-03-10T01:25:04.139Z,90.44
2016-03-10T01:26:04.095Z,90.06
2016-03-10T01:27:04.098Z,89.87
2016-03-10T01:28:04.086Z,90.35
2016-03-10T01:29:04.088Z,89.69
2016-03-10T01:30:04.091Z,89.78
2016-03-10T01:31:04.077Z,89.78
2016-03-10T01:32:04.064Z,89.87
2016-03-10T01:33:04.036Z,89.78
2016-03-10T01:34:04.055Z,89.78
2016-03-10T01:35:04.026Z,89.87
2016-03-10T01:36:04.028Z,89.69
2016-03-10T01:37:04.031Z,89.87
2016-03-10T01:38:04.018Z,89.78
2016-03-10T01:39:04.037Z,89.59
2016-03-10T01:40:03.992Z,89.78
2016-03-10T01:41:07.011Z,89.78
2016-03-10T01:42:03.982Z,89.78
2016-03-10T01:43:03.798Z,89.78
2016-03-10T01:44:03.987Z,89.78
2016-03-10T01:45:03.959Z,89.87
2016-03-10T01:46:03.961Z,89.31
2016-03-10T01:47:03.965Z,88.93
2016-03-10T01:48:03.951Z,89.22
2016-03-10T01:49:03.954Z,89.4
2016-03-10T01:50:03.941Z,89.03
2016-03-10T01:51:03.928Z,88.84
2016-03-10T01:52:03.900Z,89.5
2016-03-10T01:53:03.903Z,89.22
2016-03-10T01:54:03.905Z,89.12
2016-03-10T01:55:03.876Z,89.78
2016-03-10T01:56:03.911Z,89.69
2016-03-10T01:57:03.881Z,89.59
2016-03-10T01:58:03.853Z,89.5
2016-03-10T01:59:03.855Z,89.59
2016-03-10T02:00:03.843Z,89.78
2016-03-10T02:01:03.830Z,89.69
2016-03-10T02:02:03.832Z,89.5
2016-03-10T02:03:03.819Z,89.87
2016-03-10T02:04:03.807Z,89.59
2016-03-10T02:05:03.809Z,89.59
2016-03-10T02:06:03.641Z,89.87
2016-03-10T02:07:03.783Z,89.59
2016-03-10T02:08:03.771Z,89.78
2016-03-10T02:09:03.774Z,89.69
2016-03-10T02:10:03.777Z,89.5
2016-03-10T02:11:03.763Z,89.22
2016-03-10T02:12:03.751Z,89.12
2016-03-10T02:13:03.753Z,89.4
2016-03-10T02:14:03.740Z,89.4
2016-03-10T02:15:03.743Z,88.93
2016-03-10T02:16:03.729Z,88.93
2016-03-10T02:17:03.717Z,88.84
2016-03-10T02:18:03.703Z,89.5
2016-03-10T02:19:03.706Z,89.12
2016-03-10T02:20:03.693Z,89.78
2016-03-10T02:21:03.681Z,89.87
2016-03-10T02:22:03.683Z,89.59
2016-03-10T02:23:03.687Z,89.87
2016-03-10T02:24:03.673Z,89.97
2016-03-10T02:25:03.692Z,90.35
2016-03-10T02:26:03.647Z,90.35
2016-03-10T02:27:03.650Z,90.82
2016-03-10T02:28:03.636Z,90.06
2016-03-10T02:29:03.625Z,90.16
2016-03-10T02:30:03.627Z,90.16
2016-03-10T02:31:03.614Z,89.87
2016-03-10T02:32:03.632Z,90.06
2016-03-10T02:33:03.588Z,90.16
2016-03-10T02:34:03.606Z,90.06
2016-03-10T02:35:03.577Z,89.69
2016-03-10T02:36:03.565Z,89.87
2016-03-10T02:37:03.583Z,89.59
2016-03-10T02:38:03.571Z,89.97
2016-03-10T02:39:03.557Z,90.44
2016-03-10T02:40:03.560Z,90.91
2016-03-10T02:41:03.546Z,90.54
2016-03-10T02:42:03.534Z,90.44
2016-03-10T02:43:03.537Z,90.54
2016-03-10T02:44:03.540Z,90.35
2016-03-10T02:45:03.510Z,90.25
2016-03-10T02:46:03.529Z,90.35
2016-03-10T02:47:03.500Z,90.44
2016-03-10T02:48:03.488Z,90.44
2016-03-10T02:49:03.490Z,90.44
2016-03-10T02:50:03.478Z,90.35
2016-03-10T02:51:03.480Z,90.82
2016-03-10T02:52:03.484Z,90.06
2016-03-10T02:53:03.439Z,89.69
2016-03-10T02:54:03.457Z,89.87
2016-03-10T02:55:03.428Z,89.78
2016-03-10T02:56:03.431Z,89.22
2016-03-10T02:57:03.418Z,90.44
2016-03-10T02:58:03.421Z,89.97
2016-03-10T02:59:03.408Z,89.87
2016-03-10T03:00:03.425Z,89.97
2016-03-10T03:01:03.397Z,90.35
2016-03-10T03:02:03.385Z,90.35
2016-03-10T03:03:03.388Z,90.54
2016-03-10T03:04:03.374Z,90.44
2016-03-10T03:05:03.361Z,90.44
2016-03-10T03:06:03.192Z,90.35
2016-03-10T03:07:03.352Z,90.06
2016-03-10T03:08:03.354Z,90.44
2016-03-10T03:09:03.325Z,90.16
2016-03-10T03:10:03.327Z,90.44
2016-03-10T03:11:03.315Z,90.44
2016-03-10T03:12:03.302Z,90.44
2016-03-10T03:13:03.352Z,90.44
2016-03-10T03:14:03.307Z,91.01
2016-03-10T03:15:03.310Z,90.54
2016-03-10T03:16:03.282Z,90.44
2016-03-10T03:17:03.285Z,90.35
2016-03-10T03:18:03.271Z,90.35
2016-03-10T03:19:03.259Z,90.25
2016-03-10T03:20:03.262Z,90.73
2016-03-10T03:21:03.249Z,90.35
2016-03-10T03:22:03.251Z,90.35
2016-03-10T03:23:03.223Z,90.63
2016-03-10T03:24:03.225Z,90.63
2016-03-10T03:25:03.243Z,90.35
2016-03-10T03:26:03.200Z,90.35
2016-03-10T03:27:03.203Z,90.44
2016-03-10T03:28:03.236Z,90.25
2016-03-10T03:29:03.191Z,90.35
2016-03-10T03:30:03.178Z,90.44
2016-03-10T03:31:03.166Z,90.35
2016-03-10T03:32:03.153Z,90.54
2016-03-10T03:33:03.155Z,90.44
2016-03-10T03:34:03.142Z,90.63
2016-03-10T03:35:03.145Z,90.44
2016-03-10T03:36:03.117Z,90.82
2016-03-10T03:37:03.135Z,90.82
2016-03-10T03:38:03.106Z,91.01
2016-03-10T03:39:03.109Z,91.2
2016-03-10T03:40:03.096Z,91.2
2016-03-10T03:41:03.083Z,90.44
2016-03-10T03:42:03.085Z,90.63
2016-03-10T03:43:03.104Z,90.82
2016-03-10T03:44:03.075Z,90.82
2016-03-10T03:45:03.062Z,90.44
2016-03-10T03:46:03.049Z,90.54
2016-03-10T03:47:03.037Z,90.63
2016-03-10T03:48:03.039Z,90.73
2016-03-10T03:49:03.043Z,90.91
2016-03-10T03:50:03.014Z,90.82
2016-03-10T03:51:03.017Z,90.63
2016-03-10T03:52:03.019Z,90.82
2016-03-10T03:53:02.990Z,90.73
2016-03-10T03:54:02.978Z,90.54
2016-03-10T03:55:02.981Z,90.44
2016-03-10T03:56:02.983Z,90.44
2016-03-10T03:57:02.970Z,90.63
2016-03-10T03:58:02.988Z,90.54
2016-03-10T03:59:02.959Z,90.25
2016-03-10T04:00:02.947Z,90.25
2016-03-10T04:01:02.934Z,90.54
2016-03-10T04:02:02.936Z,90.63
2016-03-10T04:03:02.908Z,90.73
2016-03-10T04:04:02.927Z,90.73
2016-03-10T04:05:02.961Z,90.82
2016-03-10T04:06:02.978Z,90.54
2016-03-10T04:07:02.888Z,90.49
2016-03-10T04:08:02.874Z,90.35
2016-03-10T04:09:02.877Z,90.4
2016-03-10T04:10:02.864Z,91.01
2016-03-10T04:11:02.866Z,90.96
2016-03-10T04:12:02.854Z,90.25
2016-03-10T04:13:02.840Z,90.25
2016-03-10T04:14:02.844Z,90.68
2016-03-10T04:15:02.831Z,91.15
2016-03-10T04:16:02.818Z,91.34
2016-03-10T04:17:02.820Z,91.2
2016-03-10T04:18:02.808Z,91.06
2016-03-10T04:19:02.810Z,91.15
2016-03-10T04:20:02.798Z,91.15
2016-03-10T04:21:02.816Z,90.82
2016-03-10T04:22:02.772Z,91.48
2016-03-10T04:23:02.759Z,91.48
2016-03-10T04:24:02.777Z,91.15
2016-03-10T04:25:02.749Z,91.29
2016-03-10T04:26:02.751Z,91.34
2016-03-10T04:27:02.738Z,91.01
2016-03-10T04:28:02.725Z,91.34
2016-03-10T04:29:02.728Z,90.82
2016-03-10T04:30:02.715Z,91.2
2016-03-10T04:31:02.702Z,91.15
2016-03-10T04:32:02.689Z,90.4
2016-03-10T04:33:02.692Z,90.77
2016-03-10T04:34:02.679Z,90.77
2016-03-10T04:35:02.681Z,90.68
2016-03-10T04:36:02.683Z,90.77
2016-03-10T04:37:02.655Z,90.68
2016-03-10T04:38:02.658Z,90.4
2016-03-10T04:39:02.646Z,90.49
2016-03-10T04:40:02.648Z,90.49
2016-03-10T04:41:02.635Z,91.44
2016-03-10T04:42:02.621Z,91.44
2016-03-10T04:43:02.624Z,91.44
2016-03-10T04:44:02.627Z,91.06
2016-03-10T04:45:02.630Z,91.34
2016-03-10T04:46:02.632Z,91.06
2016-03-10T04:47:02.588Z,91.34
2016-03-10T04:48:02.591Z,91.44
2016-03-10T04:49:02.563Z,91.34
2016-03-10T04:50:02.565Z,91.15
2016-03-10T04:51:02.553Z,91.06
2016-03-10T04:52:02.539Z,91.72
2016-03-10T04:53:02.543Z,91.34
2016-03-10T04:54:02.529Z,91.25
2016-03-10T04:55:02.517Z,90.77
2016-03-10T04:56:02.503Z,91.25
2016-03-10T04:57:02.553Z,91.53
2016-03-10T04:58:02.508Z,91.53
2016-03-10T04:59:02.481Z,91.82
2016-03-10T05:00:02.483Z,91.44
2016-03-10T05:01:02.470Z,91.63
2016-03-10T05:02:02.472Z,91.44
2016-03-10T05:03:02.460Z,91.44
2016-03-10T05:04:02.447Z,91.82
2016-03-10T05:05:02.433Z,91.53
2016-03-10T05:06:02.421Z,92.57
2016-03-10T05:07:02.439Z,91.53
2016-03-10T05:08:02.411Z,91.72
2016-03-10T05:09:02.413Z,92
2016-03-10T05:10:02.400Z,91.72
2016-03-10T05:11:02.388Z,91.63
2016-03-10T05:12:02.406Z,92
2016-03-10T05:13:02.394Z,91.72
2016-03-10T05:14:02.365Z,91.53
2016-03-10T05:15:02.368Z,91.63
2016-03-10T05:16:02.370Z,92
2016-03-10T05:17:02.357Z,91.25
2016-03-10T05:18:02.329Z,92
2016-03-10T05:19:02.331Z,91.34
2016-03-10T05:20:02.318Z,91.25
2016-03-10T05:21:02.321Z,91.72
2016-03-10T05:22:02.323Z,91.25
2016-03-10T05:23:02.310Z,91.63
2016-03-10T05:24:02.298Z,91.53
2016-03-10T05:25:02.300Z,90.96
2016-03-10T05:26:02.272Z,91.44
2016-03-10T05:27:02.290Z,91.63
2016-03-10T05:28:02.262Z,91.15
2016-03-10T05:29:02.264Z,91.15
2016-03-10T05:30:02.251Z,91.25
2016-03-10T05:31:02.254Z,91.53
2016-03-10T05:32:02.256Z,91.34
2016-03-10T05:33:02.228Z,91.06
2016-03-10T05:34:02.246Z,91.53
2016-03-10T05:35:02.217Z,91.15
2016-03-10T05:36:02.205Z,90.96
2016-03-10T05:37:02.207Z,91.06
2016-03-10T05:38:02.194Z,91.25
2016-03-10T05:39:02.197Z,91.44
2016-03-10T05:40:02.168Z,91.15
2016-03-10T05:41:02.171Z,91.63
2016-03-10T05:42:02.158Z,91.53
2016-03-10T05:43:02.146Z,91.15
2016-03-10T05:44:02.164Z,91.63
2016-03-10T05:45:02.135Z,91.53
2016-03-10T05:46:02.138Z,91.82
2016-03-10T05:47:02.141Z,91.34
2016-03-10T05:48:02.097Z,91.44
2016-03-10T05:49:02.099Z,91.44
2016-03-10T05:50:02.087Z,91.53
2016-03-10T05:51:02.074Z,91.15
2016-03-10T05:52:02.092Z,91.34
2016-03-10T05:53:02.063Z,91.63
2016-03-10T05:54:02.065Z,91.63
2016-03-10T05:55:02.053Z,91.53
2016-03-10T05:56:02.040Z,90.96
2016-03-10T05:57:02.026Z,91.72
2016-03-10T05:58:02.014Z,91.63
2016-03-10T05:59:02.017Z,91.63
2016-03-10T06:00:02.019Z,91.15
2016-03-10T06:01:01.991Z,91.53
2016-03-10T06:02:01.993Z,91.53
2016-03-10T06:03:01.980Z,91.25
2016-03-10T06:04:01.983Z,91.15
2016-03-10T06:05:01.970Z,90.77
2016-03-10T06:06:01.956Z,91.25
2016-03-10T06:07:01.958Z,91.1
2016-03-10T06:08:01.945Z,91.39
2016-03-10T06:09:01.932Z,91.25
2016-03-10T06:10:01.920Z,90.63
2016-03-10T06:11:01.922Z,90.63
2016-03-10T06:12:01.908Z,90.54
2016-03-10T06:13:01.911Z,90.73
2016-03-10T06:14:01.899Z,90.82
2016-03-10T06:15:01.886Z,90.63
2016-03-10T06:16:01.888Z,90.54
2016-03-10T06:17:01.875Z,90.54
2016-03-10T06:18:01.863Z,90.54
2016-03-10T06:19:01.866Z,89.69
2016-03-10T06:20:01.852Z,90.06
2016-03-10T06:21:01.839Z,89.5
2016-03-10T06:22:01.826Z,89.97
2016-03-10T06:23:01.829Z,89.12
2016-03-10T06:24:01.816Z,89.4
2016-03-10T06:25:01.804Z,88.93
2016-03-10T06:26:01.806Z,89.12
2016-03-10T06:27:01.793Z,88.36
2016-03-10T06:28:01.779Z,88.17
2016-03-10T06:29:01.782Z,88.17
2016-03-10T06:30:01.770Z,87.98
2016-03-10T06:31:01.757Z,88.08
2016-03-10T06:32:01.759Z,87.98
2016-03-10T06:33:01.747Z,87.98
2016-03-10T06:34:01.749Z,88.17
2016-03-10T06:35:01.737Z,87.51
2016-03-10T06:36:01.739Z,86.94
2016-03-10T06:37:01.726Z,87.42
2016-03-10T06:38:01.713Z,87.23
2016-03-10T06:39:01.717Z,87.23
2016-03-10T06:40:01.703Z,87.51
2016-03-10T06:41:01.690Z,87.7
2016-03-10T06:42:01.677Z,87.98
2016-03-10T06:43:01.680Z,87.23
2016-03-10T06:44:01.667Z,87.42
2016-03-10T06:45:01.686Z,86.94
2016-03-10T06:46:01.688Z,86.76
2016-03-10T06:47:01.659Z,86.47
2016-03-10T06:48:01.647Z,86.38
2016-03-10T06:49:01.650Z,86.66
2016-03-10T06:50:01.636Z,86.19
2016-03-10T06:51:01.623Z,86.14
2016-03-10T06:52:01.611Z,86.04
2016-03-10T06:53:01.613Z,85.85
2016-03-10T06:54:01.600Z,85.28
2016-03-10T06:55:01.602Z,85.28
2016-03-10T06:56:01.590Z,85.1
2016-03-10T06:57:01.576Z,84.63
2016-03-10T06:58:01.596Z,84.44
2016-03-10T06:59:01.566Z,84.25
2016-03-10T07:00:01.569Z,84.25
2016-03-10T07:01:01.557Z,84.44
2016-03-10T07:02:01.591Z,85.19
2016-03-10T07:03:01.546Z,84.63
2016-03-10T07:04:01.534Z,84.72
2016-03-10T07:05:01.536Z,84.81
2016-03-10T07:06:01.523Z,83.68
2016-03-10T07:07:01.526Z,83.97
2016-03-10T07:08:01.513Z,84.06
2016-03-10T07:09:01.500Z,84.34
2016-03-10T07:10:01.502Z,84.34
2016-03-10T07:11:01.489Z,83.4
2016-03-10T07:12:01.492Z,83.68
2016-03-10T07:13:01.479Z,83.4
2016-03-10T07:14:01.466Z,84.06
2016-03-10T07:15:01.470Z,83.87
2016-03-10T07:16:01.472Z,83.59
2016-03-10T07:17:01.459Z,83.3
2016-03-10T07:18:01.446Z,83.11
2016-03-10T07:19:01.449Z,83.02
2016-03-10T07:20:01.451Z,82.54
2016-03-10T07:21:01.423Z,82.83
2016-03-10T07:22:01.425Z,82.64
2016-03-10T07:23:01.413Z,82.45
2016-03-10T07:24:01.399Z,82.92
2016-03-10T07:25:01.402Z,82.21
2016-03-10T07:26:01.405Z,81.74
2016-03-10T07:27:01.391Z,81.93
2016-03-10T07:28:01.394Z,81.17
2016-03-10T07:29:01.382Z,80.88
2016-03-10T07:30:01.369Z,80.41
2016-03-10T07:31:01.371Z,80.32
2016-03-10T07:32:01.359Z,78.33
2016-03-10T07:33:01.361Z,77.42
2016-03-10T07:34:01.349Z,73.64
2016-03-10T07:35:01.351Z,72.73
2016-03-10T07:36:01.354Z,69.82
2016-03-10T07:37:01.340Z,67.65
2016-03-10T07:38:01.343Z,65.88
2016-03-10T07:39:01.331Z,64.11
2016-03-10T07:40:01.333Z,62.69
2016-03-10T07:41:01.320Z,60.63
2016-03-10T07:42:01.323Z,59.11
2016-03-10T07:43:01.326Z,56.68
2016-03-10T07:44:01.312Z,55.82
2016-03-10T07:45:01.331Z,55.16
2016-03-10T07:46:01.318Z,55.25
2016-03-10T07:47:01.315Z,54.78
2016-03-10T07:48:01.310Z,55.16
2016-03-10T07:49:01.307Z,54.24
2016-03-10T07:50:01.288Z,53.66
2016-03-10T07:51:01.285Z,53.47
2016-03-10T07:52:01.284Z,53.66
2016-03-10T07:53:01.285Z,52.53
2016-03-10T07:54:01.285Z,52.72
2016-03-10T07:55:01.300Z,52.43
2016-03-10T07:56:01.270Z,52.17
2016-03-10T07:57:01.302Z,51.7
2016-03-10T07:58:01.134Z,50.65
2016-03-10T07:59:01.291Z,50.18
2016-03-10T08:00:01.293Z,49.89
2016-03-10T08:01:01.279Z,49.91
2016-03-10T08:02:01.281Z,49.98
2016-03-10T08:03:01.284Z,49.25
2016-03-10T08:04:01.302Z,49.25
2016-03-10T08:05:01.304Z,48.49
2016-03-10T08:06:01.291Z,48.01
2016-03-10T08:07:01.309Z,48.11
2016-03-10T08:08:01.295Z,48.11
2016-03-10T08:09:01.314Z,48.01
2016-03-10T08:10:01.317Z,47.54
2016-03-10T08:11:01.304Z,47.34
2016-03-10T08:12:01.306Z,47.34
2016-03-10T08:13:01.309Z,46.78
2016-03-10T08:14:01.311Z,46.59
2016-03-10T08:15:01.315Z,46.99
2016-03-10T08:16:01.317Z,46.99
2016-03-10T08:17:01.320Z,46.51
2016-03-10T08:18:01.339Z,46.04
2016-03-10T08:19:01.325Z,45.85
2016-03-10T08:20:01.344Z,45.11
2016-03-10T08:21:01.330Z,44.06
2016-03-10T08:22:01.350Z,44.35
2016-03-10T08:23:01.352Z,44.73
2016-03-10T08:24:01.339Z,46.04
2016-03-10T08:25:01.357Z,48.01
2016-03-10T08:26:01.360Z,50.27
2016-03-10T08:27:01.363Z,53.19
2016-03-10T08:28:01.365Z,55.16
2016-03-10T08:29:01.368Z,56.87
2016-03-10T08:30:01.371Z,58.73
2016-03-10T08:31:01.374Z,59.94
2016-03-10T08:32:01.376Z,60.6
2016-03-10T08:33:01.379Z,61.27
2016-03-10T08:34:01.382Z,62.31
2016-03-10T08:35:01.384Z,62.56
2016-03-10T08:36:01.387Z,63.79
2016-03-10T08:37:01.389Z,64.74
2016-03-10T08:38:01.377Z,65.12
2016-03-10T08:39:01.379Z,65.41
2016-03-10T08:40:01.398Z,65.69
2016-03-10T08:41:01.385Z,66.45
2016-03-10T08:42:01.387Z,65.78
2016-03-10T08:43:01.390Z,66.35
2016-03-10T08:44:01.409Z,66.7
2016-03-10T08:45:01.381Z,66.32
2016-03-10T08:46:01.383Z,66.89
2016-03-10T08:47:01.385Z,67.18
2016-03-10T08:48:01.388Z,67.58
2016-03-10T08:49:01.391Z,67.4
2016-03-10T08:50:01.377Z,66.93
2016-03-10T08:51:01.380Z,67.11
2016-03-10T08:52:01.383Z,67.11
2016-03-10T08:53:01.386Z,67.68
2016-03-10T08:54:01.373Z,67.21
2016-03-10T08:55:01.375Z,67.21
2016-03-10T08:56:01.363Z,66.93
2016-03-10T08:57:01.366Z,67.21
2016-03-10T08:58:01.383Z,67.02
2016-03-10T08:59:01.417Z,67.77
2016-03-10T09:00:01.357Z,68.4
2016-03-10T09:01:01.360Z,69.26
2016-03-10T09:02:01.363Z,68.12
2016-03-10T09:03:01.365Z,68.5
2016-03-10T09:04:01.369Z,68.12
2016-03-10T09:05:01.371Z,68.25
2016-03-10T09:06:01.358Z,67.68
2016-03-10T09:07:01.357Z,67.49
2016-03-10T09:08:01.344Z,66.93
2016-03-10T09:09:01.347Z,67.11
2016-03-10T09:10:01.349Z,66.07
2016-03-10T09:11:01.352Z,66.07
2016-03-10T09:12:01.355Z,66.16
2016-03-10T09:13:01.342Z,65.31
2016-03-10T09:14:01.360Z,65.34
2016-03-10T09:15:01.346Z,65.25
2016-03-10T09:16:01.350Z,64.97
2016-03-10T09:17:01.337Z,64.87
2016-03-10T09:18:01.340Z,64.2
2016-03-10T09:19:01.326Z,63.17
2016-03-10T09:20:01.329Z,62.88
2016-03-10T09:21:01.363Z,62.97
2016-03-10T09:22:01.334Z,63.26
2016-03-10T09:23:01.322Z,63.92
2016-03-10T09:24:01.324Z,63.82
2016-03-10T09:25:01.311Z,64.01
2016-03-10T09:26:01.314Z,64.01
2016-03-10T09:27:01.317Z,63.45
2016-03-10T09:28:01.320Z,63.26
2016-03-10T09:29:01.354Z,62.78
2016-03-10T09:30:01.310Z,62.4
2016-03-10T09:31:01.312Z,62.31
2016-03-10T09:32:01.299Z,61.93
2016-03-10T09:33:01.302Z,61.08
2016-03-10T09:34:01.305Z,61.17
2016-03-10T09:35:01.307Z,61.46
2016-03-10T09:36:01.294Z,61.08
2016-03-10T09:37:01.313Z,61.08
2016-03-10T09:38:01.300Z,60.7
2016-03-10T09:39:01.318Z,60.13
2016-03-10T09:40:01.306Z,60.35
2016-03-10T09:41:01.292Z,60.22
2016-03-10T09:42:01.295Z,60.41
2016-03-10T09:43:01.282Z,60.22
2016-03-10T09:44:01.285Z,60.41
2016-03-10T09:45:01.288Z,60.22
2016-03-10T09:46:01.274Z,60.6
2016-03-10T09:47:01.277Z,61.46
2016-03-10T09:48:01.280Z,61.46
2016-03-10T09:49:01.266Z,60.98
2016-03-10T09:50:01.269Z,61.27
2016-03-10T09:51:01.262Z,61.46
2016-03-10T09:52:01.265Z,61.93
2016-03-10T09:53:01.267Z,62.12
2016-03-10T09:54:01.269Z,61.46
2016-03-10T09:55:01.257Z,59.94
2016-03-10T09:56:01.275Z,60.25
2016-03-10T09:57:01.262Z,59.78
2016-03-10T09:58:01.265Z,59.88
2016-03-10T09:59:01.299Z,59.49
2016-03-10T10:00:01.270Z,59.78
2016-03-10T10:01:01.256Z,61.2
2016-03-10T10:02:01.260Z,59.97
2016-03-10T10:03:01.262Z,59.4
2016-03-10T10:04:01.265Z,59.3
2016-03-10T10:05:01.252Z,59.4
2016-03-10T10:06:01.239Z,59.97
2016-03-10T10:07:01.242Z,60.35
2016-03-10T10:08:01.244Z,60.44
2016-03-10T10:09:01.232Z,60.53
2016-03-10T10:10:01.266Z,61.58
2016-03-10T10:11:01.252Z,60.92
2016-03-10T10:12:01.240Z,60.82
2016-03-10T10:13:01.243Z,60.76
2016-03-10T10:14:01.245Z,60.28
2016-03-10T10:15:02.169Z,60.28
2016-03-10T10:16:01.250Z,59.52
2016-03-10T10:17:01.254Z,59.05
2016-03-10T10:18:01.256Z,58.95
2016-03-10T10:19:01.227Z,58.48
2016-03-10T10:20:01.230Z,57.62
2016-03-10T10:21:01.232Z,57.72
2016-03-10T10:22:01.235Z,57.62
2016-03-10T10:23:01.238Z,58.2
2016-03-10T10:24:01.226Z,57.56
2016-03-10T10:25:01.228Z,57.46
2016-03-10T10:26:01.230Z,56.99
2016-03-10T10:27:01.233Z,56.99
2016-03-10T10:28:01.251Z,56.04
2016-03-10T10:29:01.239Z,55.85
2016-03-10T10:30:01.242Z,55.85
2016-03-10T10:31:01.228Z,56.23
2016-03-10T10:32:01.231Z,56.51
2016-03-10T10:33:01.234Z,57.09
2016-03-10T10:34:01.236Z,57.37
2016-03-10T10:35:01.223Z,56.8
2016-03-10T10:36:01.226Z,57.46
2016-03-10T10:37:01.244Z,57.24
2016-03-10T10:38:01.231Z,57.72
2016-03-10T10:39:01.219Z,57.34
2016-03-10T10:40:01.221Z,57.53
2016-03-10T10:41:01.239Z,57.24
2016-03-10T10:42:01.227Z,57.37
2016-03-10T10:43:01.229Z,56.8
2016-03-10T10:44:01.232Z,56.8
2016-03-10T10:45:01.235Z,56.51
2016-03-10T10:46:01.237Z,56.61
2016-03-10T10:47:01.225Z,56.32
2016-03-10T10:48:01.212Z,56.42
2016-03-10T10:49:01.230Z,56.8
2016-03-10T10:50:01.217Z,56.42
2016-03-10T10:51:01.220Z,56.42
2016-03-10T10:52:01.238Z,56.23
2016-03-10T10:53:01.209Z,55.57
2016-03-10T10:54:01.212Z,55.09
2016-03-10T10:55:01.215Z,55.18
2016-03-10T10:56:01.218Z,54.61
2016-03-10T10:57:01.220Z,54.93
2016-03-10T10:58:01.223Z,54.9
2016-03-10T10:59:01.225Z,54.74
2016-03-10T11:00:01.212Z,54.64
2016-03-10T11:01:01.231Z,54.17
2016-03-10T11:02:01.234Z,54.26
2016-03-10T11:03:01.203Z,54.36
2016-03-10T11:04:01.206Z,54.17
2016-03-10T11:05:01.208Z,54.26
2016-03-10T11:06:01.211Z,54.45
2016-03-10T11:07:01.213Z,54.74
2016-03-10T11:08:01.216Z,53.69
2016-03-10T11:09:01.202Z,52.74
2016-03-10T11:10:01.206Z,52.17
2016-03-10T11:11:01.208Z,50.56
2016-03-10T11:12:01.210Z,49.89
2016-03-10T11:13:01.213Z,49.13
2016-03-10T11:14:01.216Z,49.32
2016-03-10T11:15:01.219Z,50.56
2016-03-10T11:16:01.222Z,52.74
2016-03-10T11:17:01.224Z,52.45
2016-03-10T11:18:01.227Z,52.45
2016-03-10T11:19:01.230Z,51.79
2016-03-10T11:20:01.216Z,52.17
2016-03-10T11:21:01.219Z,51.41
2016-03-10T11:22:01.206Z,51.41
2016-03-10T11:23:01.209Z,50.46
2016-03-10T11:24:01.212Z,49.98
2016-03-10T11:25:01.199Z,50.27
2016-03-10T11:26:01.201Z,49.98
2016-03-10T11:27:01.204Z,49.51
2016-03-10T11:28:01.207Z,48.75
2016-03-10T11:29:01.210Z,48.75
2016-03-10T11:30:01.212Z,48.85
2016-03-10T11:31:01.215Z,49.13
2016-03-10T11:32:01.203Z,49.89
2016-03-10T11:33:01.205Z,49.89
2016-03-10T11:34:01.208Z,49.32
2016-03-10T11:35:01.211Z,48.85
2016-03-10T11:36:01.213Z,47.99
2016-03-10T11:37:01.200Z,48.08
2016-03-10T11:38:01.203Z,47.52
2016-03-10T11:39:01.206Z,48.08
2016-03-10T11:40:01.224Z,47.99
2016-03-10T11:41:01.211Z,48.66
2016-03-10T11:42:01.213Z,48.85
2016-03-10T11:43:01.216Z,48.46
2016-03-10T11:44:01.219Z,47.8
2016-03-10T11:45:01.205Z,46.28
2016-03-10T11:46:01.208Z,45.33
2016-03-10T11:47:01.211Z,46.09
2016-03-10T11:48:01.198Z,46.09
2016-03-10T11:49:01.201Z,45.61
2016-03-10T11:50:01.204Z,45.52
2016-03-10T11:51:01.207Z,46.28
2016-03-10T11:52:01.209Z,47.23
2016-03-10T11:53:01.227Z,44.85
2016-03-10T11:54:01.215Z,44.09
2016-03-10T11:55:01.218Z,44.28
2016-03-10T11:56:01.204Z,43.83
2016-03-10T11:57:01.207Z,44.02
2016-03-10T11:58:01.226Z,43.93
2016-03-10T11:59:01.213Z,42.4
2016-03-10T12:00:01.215Z,42.31
2016-03-10T12:01:01.202Z,41.64
2016-03-10T12:02:01.221Z,41.55
2016-03-10T12:03:01.207Z,41.26
2016-03-10T12:04:01.210Z,41.74
2016-03-10T12:05:01.212Z,41.07
2016-03-10T12:06:01.216Z,42.69
2016-03-10T12:07:01.217Z,42.88
2016-03-10T12:08:01.206Z,42.99
2016-03-10T12:09:01.224Z,42.9
2016-03-10T12:10:01.210Z,42.97
2016-03-10T12:11:01.214Z,42.97
2016-03-10T12:12:01.216Z,43.07
2016-03-10T12:13:01.218Z,43.16
2016-03-10T12:14:01.221Z,42.4
2016-03-10T12:15:01.224Z,43.26
2016-03-10T12:16:01.227Z,43.85
2016-03-10T12:17:01.213Z,44.13
2016-03-10T12:18:01.233Z,41.85
2016-03-10T12:19:01.219Z,41.85
2016-03-10T12:20:01.238Z,43.09
2016-03-10T12:21:01.225Z,43.47
2016-03-10T12:22:01.227Z,44.04
2016-03-10T12:23:01.230Z,43.66
2016-03-10T12:24:01.218Z,42.14
2016-03-10T12:25:01.235Z,41.57
2016-03-10T12:26:01.238Z,41.47
2016-03-10T12:27:01.241Z,41.09
2016-03-10T12:28:01.228Z,40.81
2016-03-10T12:29:01.231Z,39.86
2016-03-10T12:30:01.234Z,39.28
2016-03-10T12:31:01.237Z,38.34
2016-03-10T12:32:01.223Z,39.09
2016-03-10T12:33:01.242Z,39.86
2016-03-10T12:34:01.260Z,40.43
2016-03-10T12:35:01.247Z,40.23
2016-03-10T12:36:01.250Z,39.84
2016-03-10T12:37:01.237Z,39.84
2016-03-10T12:38:01.239Z,40.59
2016-03-10T12:39:01.242Z,40.69
2016-03-10T12:40:01.261Z,41.26
2016-03-10T12:41:01.248Z,41.64
2016-03-10T12:42:01.250Z,41.36
2016-03-10T12:43:01.253Z,41.74
2016-03-10T12:44:01.240Z,40.79
2016-03-10T12:45:01.242Z,41.36
2016-03-10T12:46:01.245Z,43.19
2016-03-10T12:47:01.233Z,44.13
2016-03-10T12:48:01.250Z,44.8
2016-03-10T12:49:01.253Z,43.95
2016-03-10T12:50:01.255Z,43.95
2016-03-10T12:51:01.243Z,44.71
2016-03-10T12:52:01.246Z,45.56
2016-03-10T12:53:01.249Z,45.56
2016-03-10T12:54:01.236Z,45.28